sensor_id;sensor_type;location;lat;lon;timestamp;temperature;humidity
68842;SHT35;55849;48.482;2.332;2022-08-01T00:01:31;27.07;47.68
68842;SHT35;55849;48.482;2.332;2022-08-01T00:04:33;27.01;47.73
68842;SHT35;55849;48.482;2.332;2022-08-01T00:07:34;26.94;47.87
68842;SHT35;55849;48.482;2.332;2022-08-01T00:10:36;26.93;47.90
68842;SHT35;55849;48.482;2.332;2022-08-01T00:13:38;26.86;47.92
68842;SHT35;55849;48.482;2.332;2022-08-01T00:16:41;26.78;47.96
68842;SHT35;55849;48.482;2.332;2022-08-01T00:19:42;26.72;48.04
68842;SHT35;55849;48.482;2.332;2022-08-01T00:22:44;26.69;48.10
68842;SHT35;55849;48.482;2.332;2022-08-01T00:25:45;26.60;48.09
68842;SHT35;55849;48.482;2.332;2022-08-01T00:28:47;26.55;48.17
68842;SHT35;55849;48.482;2.332;2022-08-01T00:31:50;26.49;48.24
68842;SHT35;55849;48.482;2.332;2022-08-01T00:34:52;26.42;48.33
68842;SHT35;55849;48.482;2.332;2022-08-01T00:37:54;26.38;48.40
68842;SHT35;55849;48.482;2.332;2022-08-01T00:40:56;26.34;48.32
68842;SHT35;55849;48.482;2.332;2022-08-01T00:43:57;26.27;48.36
68842;SHT35;55849;48.482;2.332;2022-08-01T00:47:00;26.21;48.43
68842;SHT35;55849;48.482;2.332;2022-08-01T00:50:04;26.11;48.49
68842;SHT35;55849;48.482;2.332;2022-08-01T00:53:06;26.10;48.61
68842;SHT35;55849;48.482;2.332;2022-08-01T00:56:08;26.01;48.62
68842;SHT35;55849;48.482;2.332;2022-08-01T00:59:11;25.97;48.54
68842;SHT35;55849;48.482;2.332;2022-08-01T01:02:15;25.90;48.81
68842;SHT35;55849;48.482;2.332;2022-08-01T01:05:18;25.85;48.88
68842;SHT35;55849;48.482;2.332;2022-08-01T01:08:24;25.80;48.98
68842;SHT35;55849;48.482;2.332;2022-08-01T01:11:31;25.76;49.10
68842;SHT35;55849;48.482;2.332;2022-08-01T01:14:37;25.70;49.26
68842;SHT35;55849;48.482;2.332;2022-08-01T01:17:51;25.66;49.37
68842;SHT35;55849;48.482;2.332;2022-08-01T01:21:01;25.57;49.52
68842;SHT35;55849;48.482;2.332;2022-08-01T01:24:28;25.51;49.65
68842;SHT35;55849;48.482;2.332;2022-08-01T01:27:42;25.45;49.78
68842;SHT35;55849;48.482;2.332;2022-08-01T01:30:51;25.38;49.93
68842;SHT35;55849;48.482;2.332;2022-08-01T01:33:57;25.37;49.93
68842;SHT35;55849;48.482;2.332;2022-08-01T01:37:01;25.33;50.07
68842;SHT35;55849;48.482;2.332;2022-08-01T01:40:05;25.26;50.19
68842;SHT35;55849;48.482;2.332;2022-08-01T01:43:10;25.21;50.33
68842;SHT35;55849;48.482;2.332;2022-08-01T01:46:17;25.18;50.49
68842;SHT35;55849;48.482;2.332;2022-08-01T01:49:25;25.13;50.72
68842;SHT35;55849;48.482;2.332;2022-08-01T01:52:27;25.09;50.61
68842;SHT35;55849;48.482;2.332;2022-08-01T01:55:31;25.03;50.94
68842;SHT35;55849;48.482;2.332;2022-08-01T01:58:34;25.00;51.10
68842;SHT35;55849;48.482;2.332;2022-08-01T02:01:39;24.93;50.96
68842;SHT35;55849;48.482;2.332;2022-08-01T02:04:43;24.89;51.01
68842;SHT35;55849;48.482;2.332;2022-08-01T02:07:46;24.87;51.01
68842;SHT35;55849;48.482;2.332;2022-08-01T02:10:50;24.82;51.15
68842;SHT35;55849;48.482;2.332;2022-08-01T02:14:07;24.77;51.19
68842;SHT35;55849;48.482;2.332;2022-08-01T02:17:12;24.75;51.16
68842;SHT35;55849;48.482;2.332;2022-08-01T02:20:17;24.69;51.12
68842;SHT35;55849;48.482;2.332;2022-08-01T02:23:19;24.64;51.19
68842;SHT35;55849;48.482;2.332;2022-08-01T02:26:22;24.59;51.33
68842;SHT35;55849;48.482;2.332;2022-08-01T02:29:28;24.52;51.23
68842;SHT35;55849;48.482;2.332;2022-08-01T02:32:39;24.52;51.47
68842;SHT35;55849;48.482;2.332;2022-08-01T02:35:43;24.48;51.54
68842;SHT35;55849;48.482;2.332;2022-08-01T02:38:45;24.44;51.61
68842;SHT35;55849;48.482;2.332;2022-08-01T02:41:50;24.38;51.83
68842;SHT35;55849;48.482;2.332;2022-08-01T02:44:57;24.35;51.77
68842;SHT35;55849;48.482;2.332;2022-08-01T02:48:05;24.33;51.78
68842;SHT35;55849;48.482;2.332;2022-08-01T02:51:10;24.30;52.09
68842;SHT35;55849;48.482;2.332;2022-08-01T02:54:15;24.23;52.09
68842;SHT35;55849;48.482;2.332;2022-08-01T02:57:18;24.18;52.22
68842;SHT35;55849;48.482;2.332;2022-08-01T03:00:23;24.16;52.19
68842;SHT35;55849;48.482;2.332;2022-08-01T03:03:26;24.12;52.49
68842;SHT35;55849;48.482;2.332;2022-08-01T03:06:29;24.10;52.55
68842;SHT35;55849;48.482;2.332;2022-08-01T03:09:36;24.06;52.60
68842;SHT35;55849;48.482;2.332;2022-08-01T03:12:39;23.99;52.68
68842;SHT35;55849;48.482;2.332;2022-08-01T03:15:43;23.96;52.67
68842;SHT35;55849;48.482;2.332;2022-08-01T03:18:46;23.95;52.75
68842;SHT35;55849;48.482;2.332;2022-08-01T03:21:50;23.88;52.82
68842;SHT35;55849;48.482;2.332;2022-08-01T03:24:53;23.83;52.92
68842;SHT35;55849;48.482;2.332;2022-08-01T03:28:00;23.82;52.94
68842;SHT35;55849;48.482;2.332;2022-08-01T03:31:02;23.78;53.03
68842;SHT35;55849;48.482;2.332;2022-08-01T03:34:06;23.75;53.13
68842;SHT35;55849;48.482;2.332;2022-08-01T03:37:11;23.71;53.32
68842;SHT35;55849;48.482;2.332;2022-08-01T03:40:17;23.69;53.42
68842;SHT35;55849;48.482;2.332;2022-08-01T03:43:26;23.66;53.45
68842;SHT35;55849;48.482;2.332;2022-08-01T03:46:35;23.65;53.52
68842;SHT35;55849;48.482;2.332;2022-08-01T03:49:42;23.61;53.69
68842;SHT35;55849;48.482;2.332;2022-08-01T03:52:45;23.57;53.66
68842;SHT35;55849;48.482;2.332;2022-08-01T03:55:48;23.54;53.74
68842;SHT35;55849;48.482;2.332;2022-08-01T03:58:51;23.48;53.76
68842;SHT35;55849;48.482;2.332;2022-08-01T04:01:53;23.44;53.81
68842;SHT35;55849;48.482;2.332;2022-08-01T04:04:56;23.41;53.93
68842;SHT35;55849;48.482;2.332;2022-08-01T04:07:59;23.40;53.92
68842;SHT35;55849;48.482;2.332;2022-08-01T04:11:02;23.37;53.97
68842;SHT35;55849;48.482;2.332;2022-08-01T04:14:04;23.33;54.00
68842;SHT35;55849;48.482;2.332;2022-08-01T04:17:06;23.31;54.03
68842;SHT35;55849;48.482;2.332;2022-08-01T04:20:10;23.28;54.15
68842;SHT35;55849;48.482;2.332;2022-08-01T04:23:13;23.24;54.22
68842;SHT35;55849;48.482;2.332;2022-08-01T04:26:17;23.24;54.52
68842;SHT35;55849;48.482;2.332;2022-08-01T04:29:20;23.24;54.66
68842;SHT35;55849;48.482;2.332;2022-08-01T04:32:25;23.24;54.80
68842;SHT35;55849;48.482;2.332;2022-08-01T04:35:29;23.26;54.86
68842;SHT35;55849;48.482;2.332;2022-08-01T04:38:34;23.26;55.02
68842;SHT35;55849;48.482;2.332;2022-08-01T04:41:37;23.23;55.20
68842;SHT35;55849;48.482;2.332;2022-08-01T04:44:40;23.27;55.52
68842;SHT35;55849;48.482;2.332;2022-08-01T04:47:42;23.27;55.44
68842;SHT35;55849;48.482;2.332;2022-08-01T04:50:45;23.30;55.54
68842;SHT35;55849;48.482;2.332;2022-08-01T04:53:47;23.30;55.74
68842;SHT35;55849;48.482;2.332;2022-08-01T04:56:51;23.33;55.81
68842;SHT35;55849;48.482;2.332;2022-08-01T04:59:53;23.30;55.77
68842;SHT35;55849;48.482;2.332;2022-08-01T05:02:57;23.38;55.80
68842;SHT35;55849;48.482;2.332;2022-08-01T05:06:00;23.38;55.85
68842;SHT35;55849;48.482;2.332;2022-08-01T05:09:01;23.38;56.23
68842;SHT35;55849;48.482;2.332;2022-08-01T05:12:04;23.41;56.11
68842;SHT35;55849;48.482;2.332;2022-08-01T05:15:07;23.41;56.15
68842;SHT35;55849;48.482;2.332;2022-08-01T05:18:09;23.41;56.17
68842;SHT35;55849;48.482;2.332;2022-08-01T05:21:12;23.41;56.29
68842;SHT35;55849;48.482;2.332;2022-08-01T05:24:13;23.44;56.67
68842;SHT35;55849;48.482;2.332;2022-08-01T05:27:15;23.44;56.56
68842;SHT35;55849;48.482;2.332;2022-08-01T05:30:16;23.46;56.39
68842;SHT35;55849;48.482;2.332;2022-08-01T05:33:18;23.46;56.44
68842;SHT35;55849;48.482;2.332;2022-08-01T05:36:23;23.50;56.35
68842;SHT35;55849;48.482;2.332;2022-08-01T05:39:24;23.48;56.74
68842;SHT35;55849;48.482;2.332;2022-08-01T05:42:26;23.50;56.66
68842;SHT35;55849;48.482;2.332;2022-08-01T05:45:27;23.53;56.73
68842;SHT35;55849;48.482;2.332;2022-08-01T05:48:29;23.53;56.78
68842;SHT35;55849;48.482;2.332;2022-08-01T05:51:32;23.54;56.72
68842;SHT35;55849;48.482;2.332;2022-08-01T05:54:34;23.59;57.14
68842;SHT35;55849;48.482;2.332;2022-08-01T05:57:36;23.61;56.97
68842;SHT35;55849;48.482;2.332;2022-08-01T06:00:37;23.62;57.14
68842;SHT35;55849;48.482;2.332;2022-08-01T06:03:39;23.65;57.30
68842;SHT35;55849;48.482;2.332;2022-08-01T06:06:42;23.71;57.25
68842;SHT35;55849;48.482;2.332;2022-08-01T06:09:43;23.75;57.18
68842;SHT35;55849;48.482;2.332;2022-08-01T06:12:45;23.76;57.13
68842;SHT35;55849;48.482;2.332;2022-08-01T06:15:47;23.81;57.62
68842;SHT35;55849;48.482;2.332;2022-08-01T06:18:49;23.82;57.60
68842;SHT35;55849;48.482;2.332;2022-08-01T06:21:52;23.86;57.62
68842;SHT35;55849;48.482;2.332;2022-08-01T06:24:54;23.88;58.05
68842;SHT35;55849;48.482;2.332;2022-08-01T06:27:55;23.90;57.91
68842;SHT35;55849;48.482;2.332;2022-08-01T06:30:57;23.98;58.36
68842;SHT35;55849;48.482;2.332;2022-08-01T06:34:00;23.99;58.39
68842;SHT35;55849;48.482;2.332;2022-08-01T06:37:03;24.03;58.56
68842;SHT35;55849;48.482;2.332;2022-08-01T06:40:06;24.06;58.83
68842;SHT35;55849;48.482;2.332;2022-08-01T06:43:08;24.07;59.24
68842;SHT35;55849;48.482;2.332;2022-08-01T06:46:11;24.14;59.09
68842;SHT35;55849;48.482;2.332;2022-08-01T06:49:13;24.18;59.21
68842;SHT35;55849;48.482;2.332;2022-08-01T06:52:16;24.18;59.09
68842;SHT35;55849;48.482;2.332;2022-08-01T06:55:17;24.21;59.29
68842;SHT35;55849;48.482;2.332;2022-08-01T06:58:19;24.30;59.29
68842;SHT35;55849;48.482;2.332;2022-08-01T07:01:21;24.33;59.62
68842;SHT35;55849;48.482;2.332;2022-08-01T07:04:23;24.35;59.69
68842;SHT35;55849;48.482;2.332;2022-08-01T07:07:26;24.38;59.90
68842;SHT35;55849;48.482;2.332;2022-08-01T07:10:28;24.44;59.96
68842;SHT35;55849;48.482;2.332;2022-08-01T07:13:29;24.52;59.98
68842;SHT35;55849;48.482;2.332;2022-08-01T07:16:32;24.58;60.37
68842;SHT35;55849;48.482;2.332;2022-08-01T07:19:34;24.62;59.32
68842;SHT35;55849;48.482;2.332;2022-08-01T07:22:38;24.68;59.13
68842;SHT35;55849;48.482;2.332;2022-08-01T07:25:40;24.73;59.26
68842;SHT35;55849;48.482;2.332;2022-08-01T07:28:42;24.77;58.75
68842;SHT35;55849;48.482;2.332;2022-08-01T07:31:43;24.85;58.07
68842;SHT35;55849;48.482;2.332;2022-08-01T07:34:45;24.87;57.91
68842;SHT35;55849;48.482;2.332;2022-08-01T07:37:48;24.93;57.78
68842;SHT35;55849;48.482;2.332;2022-08-01T07:40:49;25.00;57.60
68842;SHT35;55849;48.482;2.332;2022-08-01T17:21:16;35.46;36.00
68842;SHT35;55849;48.482;2.332;2022-08-01T17:24:20;35.30;35.80
68842;SHT35;55849;48.482;2.332;2022-08-01T17:27:22;35.15;36.25
68842;SHT35;55849;48.482;2.332;2022-08-01T17:30:23;35.00;37.35
68842;SHT35;55849;48.482;2.332;2022-08-01T17:33:25;34.84;37.27
68842;SHT35;55849;48.482;2.332;2022-08-01T17:36:28;34.72;37.60
68842;SHT35;55849;48.482;2.332;2022-08-01T17:39:30;34.58;36.11
68842;SHT35;55849;48.482;2.332;2022-08-01T17:42:31;34.44;37.72
68842;SHT35;55849;48.482;2.332;2022-08-01T17:45:33;34.32;37.51
68842;SHT35;55849;48.482;2.332;2022-08-01T17:48:34;34.22;37.78
68842;SHT35;55849;48.482;2.332;2022-08-01T17:51:37;34.09;37.88
68842;SHT35;55849;48.482;2.332;2022-08-01T17:54:39;33.96;38.07
68842;SHT35;55849;48.482;2.332;2022-08-01T17:57:41;33.85;37.22
68842;SHT35;55849;48.482;2.332;2022-08-01T18:00:43;33.71;37.40
68842;SHT35;55849;48.482;2.332;2022-08-01T18:03:45;33.67;37.32
68842;SHT35;55849;48.482;2.332;2022-08-01T18:06:48;33.58;37.63
68842;SHT35;55849;48.482;2.332;2022-08-01T18:09:50;33.49;38.14
68842;SHT35;55849;48.482;2.332;2022-08-01T18:12:52;33.39;38.20
68842;SHT35;55849;48.482;2.332;2022-08-01T18:15:54;33.27;38.55
68842;SHT35;55849;48.482;2.332;2022-08-01T18:18:55;33.12;38.17
68842;SHT35;55849;48.482;2.332;2022-08-01T18:21:58;33.03;38.47
68842;SHT35;55849;48.482;2.332;2022-08-01T18:25:00;32.91;38.80
68842;SHT35;55849;48.482;2.332;2022-08-01T18:28:02;32.81;38.49
68842;SHT35;55849;48.482;2.332;2022-08-01T18:31:04;32.70;38.93
68842;SHT35;55849;48.482;2.332;2022-08-01T18:34:06;32.61;39.20
68842;SHT35;55849;48.482;2.332;2022-08-01T18:37:09;32.54;39.63
68842;SHT35;55849;48.482;2.332;2022-08-01T18:40:12;32.40;39.66
68842;SHT35;55849;48.482;2.332;2022-08-01T18:43:13;32.32;40.08
68842;SHT35;55849;48.482;2.332;2022-08-01T18:46:15;32.23;40.22
68842;SHT35;55849;48.482;2.332;2022-08-01T18:49:17;32.12;40.48
68842;SHT35;55849;48.482;2.332;2022-08-01T18:52:21;32.04;40.85
68842;SHT35;55849;48.482;2.332;2022-08-01T18:55:22;31.93;40.98
68842;SHT35;55849;48.482;2.332;2022-08-01T18:58:25;31.81;41.16
68842;SHT35;55849;48.482;2.332;2022-08-01T19:01:26;31.71;41.28
68842;SHT35;55849;48.482;2.332;2022-08-01T19:04:28;31.58;41.27
68842;SHT35;55849;48.482;2.332;2022-08-01T19:07:31;31.47;41.49
68842;SHT35;55849;48.482;2.332;2022-08-01T19:10:33;31.37;41.47
68842;SHT35;55849;48.482;2.332;2022-08-01T19:13:34;31.25;41.63
68842;SHT35;55849;48.482;2.332;2022-08-01T19:16:37;31.14;41.60
68842;SHT35;55849;48.482;2.332;2022-08-01T19:19:39;31.02;41.74
68842;SHT35;55849;48.482;2.332;2022-08-01T19:22:42;30.92;41.91
68842;SHT35;55849;48.482;2.332;2022-08-01T19:25:44;30.81;42.03
68842;SHT35;55849;48.482;2.332;2022-08-01T19:28:50;30.71;42.22
68842;SHT35;55849;48.482;2.332;2022-08-01T19:31:53;30.61;42.36
68842;SHT35;55849;48.482;2.332;2022-08-01T19:35:02;30.50;42.36
68842;SHT35;55849;48.482;2.332;2022-08-01T19:38:07;30.40;42.17
68842;SHT35;55849;48.482;2.332;2022-08-01T19:41:10;30.32;42.30
68842;SHT35;55849;48.482;2.332;2022-08-01T19:44:15;30.22;42.48
68842;SHT35;55849;48.482;2.332;2022-08-01T19:47:17;30.12;42.54
68842;SHT35;55849;48.482;2.332;2022-08-01T19:50:19;30.04;42.54
68842;SHT35;55849;48.482;2.332;2022-08-01T19:53:23;29.95;42.73
68842;SHT35;55849;48.482;2.332;2022-08-01T19:56:25;29.84;42.73
68842;SHT35;55849;48.482;2.332;2022-08-01T19:59:30;29.73;42.89
68842;SHT35;55849;48.482;2.332;2022-08-01T20:02:33;29.64;42.88
68842;SHT35;55849;48.482;2.332;2022-08-01T20:05:35;29.57;42.91
68842;SHT35;55849;48.482;2.332;2022-08-01T20:08:39;29.47;43.12
68842;SHT35;55849;48.482;2.332;2022-08-01T20:11:43;29.37;43.20
68842;SHT35;55849;48.482;2.332;2022-08-01T20:14:45;29.29;43.34
68842;SHT35;55849;48.482;2.332;2022-08-01T20:17:49;29.22;43.46
68842;SHT35;55849;48.482;2.332;2022-08-01T20:20:52;29.16;43.56
68842;SHT35;55849;48.482;2.332;2022-08-01T20:23:59;29.07;43.60
68842;SHT35;55849;48.482;2.332;2022-08-01T20:27:01;28.97;43.71
68842;SHT35;55849;48.482;2.332;2022-08-01T20:30:03;28.90;43.82
68842;SHT35;55849;48.482;2.332;2022-08-01T20:33:06;28.81;44.02
68842;SHT35;55849;48.482;2.332;2022-08-01T20:36:08;28.74;44.23
68842;SHT35;55849;48.482;2.332;2022-08-01T20:39:13;28.64;44.42
68842;SHT35;55849;48.482;2.332;2022-08-01T20:42:14;28.55;44.52
68842;SHT35;55849;48.482;2.332;2022-08-01T20:45:16;28.52;44.54
68842;SHT35;55849;48.482;2.332;2022-08-01T20:48:18;28.41;44.55
68842;SHT35;55849;48.482;2.332;2022-08-01T20:51:22;28.35;44.58
68842;SHT35;55849;48.482;2.332;2022-08-01T20:54:25;28.31;44.63
68842;SHT35;55849;48.482;2.332;2022-08-01T20:57:29;28.21;44.77
68842;SHT35;55849;48.482;2.332;2022-08-01T21:00:32;28.14;44.90
68842;SHT35;55849;48.482;2.332;2022-08-01T21:03:39;28.07;45.05
68842;SHT35;55849;48.482;2.332;2022-08-01T21:06:54;27.97;45.17
68842;SHT35;55849;48.482;2.332;2022-08-01T21:10:03;27.91;45.32
68842;SHT35;55849;48.482;2.332;2022-08-01T21:13:06;27.82;45.43
68842;SHT35;55849;48.482;2.332;2022-08-01T21:16:11;27.77;45.72
68842;SHT35;55849;48.482;2.332;2022-08-01T21:19:16;27.70;45.70
68842;SHT35;55849;48.482;2.332;2022-08-01T21:22:23;27.63;45.75
68842;SHT35;55849;48.482;2.332;2022-08-01T21:25:32;27.56;45.79
68842;SHT35;55849;48.482;2.332;2022-08-01T21:28:35;27.49;45.91
68842;SHT35;55849;48.482;2.332;2022-08-01T21:31:39;27.42;45.98
68842;SHT35;55849;48.482;2.332;2022-08-01T21:34:45;27.41;46.02
68842;SHT35;55849;48.482;2.332;2022-08-01T21:37:48;27.31;46.14
68842;SHT35;55849;48.482;2.332;2022-08-01T21:40:52;27.27;46.27
68842;SHT35;55849;48.482;2.332;2022-08-01T21:43:56;27.20;46.45
68842;SHT35;55849;48.482;2.332;2022-08-01T21:47:01;27.14;46.49
68842;SHT35;55849;48.482;2.332;2022-08-01T21:50:04;27.04;46.48
68842;SHT35;55849;48.482;2.332;2022-08-01T21:53:09;27.00;46.59
68842;SHT35;55849;48.482;2.332;2022-08-01T21:56:24;26.91;46.70
68842;SHT35;55849;48.482;2.332;2022-08-01T21:59:40;26.87;46.83
68842;SHT35;55849;48.482;2.332;2022-08-01T22:02:48;26.80;47.01
68842;SHT35;55849;48.482;2.332;2022-08-01T22:05:52;26.75;47.19
68842;SHT35;55849;48.482;2.332;2022-08-01T22:08:59;26.72;47.31
68842;SHT35;55849;48.482;2.332;2022-08-01T22:12:05;26.64;47.48
68842;SHT35;55849;48.482;2.332;2022-08-01T22:15:10;26.60;47.50
68842;SHT35;55849;48.482;2.332;2022-08-01T22:18:12;26.52;47.51
68842;SHT35;55849;48.482;2.332;2022-08-01T22:21:16;26.48;47.56
68842;SHT35;55849;48.482;2.332;2022-08-01T22:24:18;26.41;47.67
68842;SHT35;55849;48.482;2.332;2022-08-01T22:27:21;26.34;47.77
68842;SHT35;55849;48.482;2.332;2022-08-01T22:30:25;26.29;47.87
68842;SHT35;55849;48.482;2.332;2022-08-01T22:33:27;26.25;47.88
68842;SHT35;55849;48.482;2.332;2022-08-01T22:36:29;26.18;47.93
68842;SHT35;55849;48.482;2.332;2022-08-01T22:39:31;26.14;48.07
68842;SHT35;55849;48.482;2.332;2022-08-01T22:42:38;26.08;48.32
68842;SHT35;55849;48.482;2.332;2022-08-01T22:45:46;26.01;48.34
68842;SHT35;55849;48.482;2.332;2022-08-01T22:48:57;26.00;48.52
68842;SHT35;55849;48.482;2.332;2022-08-01T22:52:03;25.94;48.68
68842;SHT35;55849;48.482;2.332;2022-08-01T22:55:08;25.90;48.85
68842;SHT35;55849;48.482;2.332;2022-08-01T22:58:14;25.87;48.95
68842;SHT35;55849;48.482;2.332;2022-08-01T23:01:20;25.82;49.04
68842;SHT35;55849;48.482;2.332;2022-08-01T23:04:29;25.76;49.05
68842;SHT35;55849;48.482;2.332;2022-08-01T23:07:34;25.72;49.23
68842;SHT35;55849;48.482;2.332;2022-08-01T23:10:39;25.68;49.31
68842;SHT35;55849;48.482;2.332;2022-08-01T23:13:43;25.63;49.23
68842;SHT35;55849;48.482;2.332;2022-08-01T23:16:46;25.53;49.31
68842;SHT35;55849;48.482;2.332;2022-08-01T23:19:48;25.52;49.33
68842;SHT35;55849;48.482;2.332;2022-08-01T23:22:52;25.44;49.41
68842;SHT35;55849;48.482;2.332;2022-08-01T23:25:55;25.37;49.51
68842;SHT35;55849;48.482;2.332;2022-08-01T23:28:59;25.31;49.65
68842;SHT35;55849;48.482;2.332;2022-08-01T23:32:02;25.27;49.78
68842;SHT35;55849;48.482;2.332;2022-08-01T23:35:04;25.21;49.90
68842;SHT35;55849;48.482;2.332;2022-08-01T23:38:07;25.16;50.07
68842;SHT35;55849;48.482;2.332;2022-08-01T23:41:10;25.11;50.20
68842;SHT35;55849;48.482;2.332;2022-08-01T23:44:16;25.06;50.33
68842;SHT35;55849;48.482;2.332;2022-08-01T23:47:18;25.03;50.48
68842;SHT35;55849;48.482;2.332;2022-08-01T23:50:20;24.96;50.57
68842;SHT35;55849;48.482;2.332;2022-08-01T23:53:21;24.96;50.65
68842;SHT35;55849;48.482;2.332;2022-08-01T23:56:23;24.87;50.87
68842;SHT35;55849;48.482;2.332;2022-08-01T23:59:26;24.85;51.00
